Goodwill, Louisiana
Current Conditions -  °F | °C
As of 2:35 PM on Friday 28 Nov 2014 (Local Time) from KBQP Reporting Station
Clear Clear  
Wind Chill: 60°   Ceiling: Unl
Heat Index: 60°   Visibility: 10mi
Dew Point: 35°   Wind: 8mph
Humidity: 39%   Direction: 160°SSE
Pressure: 30.23"   Gusts: NA
Location:  32.8667°N, 91.4273°W
Report Text: KBQP 282035Z AUTO 16007KT 10SM CLR 16/02 A3023 RMK AO2 T01550016
Loading
Personal Weather Stations






























Interactive Weather Map New forecast layout! Learn more

10-Day Weather Forecast

Advertisements
Track Severe Weather on mobile